createdAt,value
2019-01-27T00:03:03.169Z,96215.36
2019-01-27T00:07:07.852Z,96200.31
2019-01-27T00:11:12.541Z,96201.09
2019-01-27T00:15:17.228Z,96199.53
2019-01-27T00:19:21.907Z,96173.75
2019-01-27T00:23:26.591Z,96172.30
2019-01-27T00:27:31.285Z,96161.42
2019-01-27T00:31:35.967Z,96157.77
2019-01-27T00:35:40.653Z,96148.00
2019-01-27T00:39:46.397Z,96134.59
2019-01-27T00:43:51.081Z,96130.16
2019-01-27T00:47:55.759Z,96119.03
2019-01-27T00:52:00.438Z,96105.68
2019-01-27T00:56:05.392Z,96091.48
2019-01-27T01:00:13.740Z,96069.16
2019-01-27T01:04:18.424Z,96067.47
2019-01-27T01:08:23.211Z,96056.03
2019-01-27T01:12:27.977Z,96051.23
2019-01-27T01:16:32.659Z,96044.36
2019-01-27T01:20:37.332Z,96026.90
2019-01-27T01:24:42.009Z,96023.11
2019-01-27T01:28:46.691Z,96007.33
2019-01-27T01:32:51.380Z,96005.64
2019-01-27T01:36:57.052Z,95996.50
2019-01-27T01:41:01.728Z,95996.62
2019-01-27T01:45:09.675Z,95986.26
2019-01-27T01:49:14.359Z,95978.58
2019-01-27T01:53:19.052Z,95978.25
2019-01-27T01:57:23.720Z,95960.34
2019-01-27T02:01:28.408Z,95949.05
2019-01-27T02:05:33.093Z,95946.84
2019-01-27T02:09:37.772Z,95939.97
2019-01-27T02:13:42.455Z,95940.13
2019-01-27T02:17:47.129Z,95928.05
2019-01-27T02:21:51.807Z,95902.05
2019-01-27T02:25:56.491Z,95892.58
2019-01-27T02:30:01.178Z,95885.66
2019-01-27T02:34:05.848Z,95880.31
2019-01-27T02:38:10.513Z,95870.61
2019-01-27T02:42:15.195Z,95858.14
2019-01-27T02:46:19.892Z,95837.84
2019-01-27T02:50:24.554Z,95823.33
2019-01-27T02:54:29.230Z,95808.98
2019-01-27T02:58:33.895Z,95794.41
2019-01-27T03:02:38.614Z,95773.05
2019-01-27T03:06:50.832Z,95773.50
2019-01-27T03:10:55.510Z,95765.72
2019-01-27T03:15:00.193Z,95755.63
2019-01-27T03:19:05.927Z,95752.19
2019-01-27T03:23:10.607Z,95743.67
2019-01-27T03:27:15.287Z,95742.19
2019-01-27T03:31:19.967Z,95725.53
2019-01-27T03:35:24.647Z,95718.97
2019-01-27T03:39:29.313Z,95705.08
2019-01-27T03:43:33.991Z,95700.09
2019-01-27T03:47:38.666Z,95692.43
2019-01-27T03:51:43.350Z,95697.51
2019-01-27T03:55:48.035Z,95682.05
2019-01-27T03:59:52.699Z,95674.34
2019-01-27T04:03:57.376Z,95670.83
2019-01-27T04:08:02.052Z,95658.39
2019-01-27T04:12:06.732Z,95662.40
2019-01-27T04:16:11.415Z,95652.30
2019-01-27T04:20:17.914Z,95646.56
2019-01-27T04:24:22.600Z,95633.78
2019-01-27T04:28:27.266Z,95628.86
2019-01-27T04:32:31.942Z,95624.61
2019-01-27T04:36:36.636Z,95615.53
2019-01-27T04:40:41.305Z,95605.15
2019-01-27T04:44:45.983Z,95603.93
2019-01-27T04:48:50.664Z,95597.98
2019-01-27T04:52:55.340Z,95580.57
2019-01-27T04:57:00.010Z,95568.97
2019-01-27T05:01:05.753Z,95575.92
2019-01-27T05:05:12.175Z,95567.78
2019-01-27T05:09:16.856Z,95552.10
2019-01-27T05:13:21.533Z,95563.16
2019-01-27T05:17:26.206Z,95538.77
2019-01-27T05:21:30.885Z,95537.09
2019-01-27T05:25:35.564Z,95524.31
2019-01-27T05:29:40.242Z,95523.84
2019-01-27T05:33:44.920Z,95517.06
2019-01-27T05:37:49.586Z,95520.04
2019-01-27T05:41:54.260Z,95512.33
2019-01-27T05:45:58.933Z,95504.74
2019-01-27T05:50:05.161Z,95499.55
2019-01-27T05:54:09.841Z,95488.25
2019-01-27T05:58:14.508Z,95478.88
2019-01-27T06:02:20.159Z,95483.60
2019-01-27T06:06:24.839Z,95482.68
2019-01-27T06:10:29.513Z,95485.28
2019-01-27T06:14:34.196Z,95472.68
2019-01-27T06:18:38.864Z,95471.38
2019-01-27T06:22:43.541Z,95462.30
2019-01-27T06:26:48.220Z,95460.34
2019-01-27T06:30:52.894Z,95443.67
2019-01-27T06:34:57.579Z,95449.23
2019-01-27T06:39:02.243Z,95436.70
2019-01-27T06:43:07.889Z,95430.80
2019-01-27T06:47:12.850Z,95439.88
2019-01-27T06:51:17.526Z,95427.07
2019-01-27T06:55:22.955Z,95421.70
2019-01-27T06:59:32.199Z,95421.70
2019-01-27T07:03:38.511Z,95432.27
2019-01-27T07:07:44.829Z,95428.37
2019-01-27T07:11:56.862Z,95427.09
2019-01-27T07:16:03.184Z,95426.89
2019-01-27T07:20:12.244Z,95424.09
2019-01-27T07:24:18.552Z,95424.30
2019-01-27T07:28:36.866Z,95423.91
2019-01-27T07:32:48.898Z,95417.98
2019-01-27T07:37:04.044Z,95409.18
2019-01-27T07:41:19.552Z,95413.64
2019-01-27T07:45:28.812Z,95418.19
2019-01-27T07:49:53.178Z,95409.65
2019-01-27T07:54:02.492Z,95406.42
2019-01-27T07:58:08.807Z,95398.98
2019-01-27T08:02:15.126Z,95393.45
2019-01-27T08:06:27.828Z,95380.19
2019-01-27T08:10:43.063Z,95379.81
2019-01-27T08:14:49.379Z,95378.67
2019-01-27T08:18:55.709Z,95379.23
2019-01-27T08:23:04.439Z,95375.30
2019-01-27T08:27:10.758Z,95378.83
2019-01-27T08:31:22.783Z,95375.59
2019-01-27T08:35:34.832Z,95373.63
2019-01-27T08:39:43.840Z,95367.30
2019-01-27T08:43:56.204Z,95351.73
2019-01-27T08:48:00.887Z,95342.09
2019-01-27T08:52:05.704Z,95333.34
2019-01-27T08:56:10.397Z,95334.96
2019-01-27T09:00:18.447Z,95332.40
2019-01-27T09:04:27.720Z,95328.98
2019-01-27T09:08:43.006Z,95325.56
2019-01-27T09:13:11.177Z,95318.32
2019-01-27T09:17:29.890Z,95310.59
2019-01-27T09:21:39.179Z,95313.78
2019-01-27T09:25:45.497Z,95300.42
2019-01-27T09:29:51.814Z,95305.94
2019-01-27T09:34:14.742Z,95307.70
2019-01-27T09:38:24.042Z,95298.41
2019-01-27T09:42:33.282Z,95306.14
2019-01-27T09:46:42.542Z,95300.01
2019-01-27T09:50:48.863Z,95292.98
2019-01-27T09:54:57.828Z,95292.38
2019-01-27T09:59:04.155Z,95288.47
2019-01-27T10:03:19.295Z,95269.06
2019-01-27T10:07:28.314Z,95287.34
2019-01-27T10:11:34.640Z,95281.55
2019-01-27T10:15:49.993Z,95284.30
2019-01-27T10:20:11.397Z,95285.09
2019-01-27T10:24:17.714Z,95276.37
2019-01-27T10:28:24.040Z,95264.39
2019-01-27T10:32:33.077Z,95257.66
2019-01-27T10:36:42.315Z,95253.25
2019-01-27T10:40:54.479Z,95262.08
2019-01-27T10:45:00.879Z,95260.20
2019-01-27T10:49:23.399Z,95251.02
2019-01-27T10:53:35.738Z,95252.36
2019-01-27T10:57:44.718Z,95241.99
2019-01-27T11:01:59.930Z,95229.53
2019-01-27T11:06:12.403Z,95219.19
2019-01-27T11:10:27.729Z,95205.14
2019-01-27T11:14:34.046Z,95201.23
2019-01-27T11:18:52.230Z,95198.63
2019-01-27T11:22:58.545Z,95207.50
2019-01-27T11:27:17.085Z,95216.20
2019-01-27T11:31:29.398Z,95202.42
2019-01-27T11:35:35.711Z,95202.84
2019-01-27T11:39:42.031Z,95190.77
2019-01-27T11:43:57.044Z,95191.05
2019-01-27T11:48:12.637Z,95200.66
2019-01-27T11:52:18.659Z,95194.48
2019-01-27T11:56:23.331Z,95184.50
2019-01-27T12:00:29.664Z,95182.77
2019-01-27T12:04:34.334Z,95175.88
2019-01-27T12:08:39.011Z,95165.64
2019-01-27T12:12:43.685Z,95172.42
2019-01-27T12:16:49.335Z,95164.56
2019-01-27T12:20:54.006Z,95166.23
2019-01-27T12:24:58.683Z,95162.32
2019-01-27T12:29:03.362Z,95147.53
2019-01-27T12:33:08.049Z,95146.11
2019-01-27T12:37:12.712Z,95139.83
2019-01-27T12:41:17.391Z,95140.56
2019-01-27T12:45:22.075Z,95136.39
2019-01-27T12:49:26.751Z,95127.16
2019-01-27T12:53:31.432Z,95126.46
2019-01-27T12:57:36.110Z,95125.00
2019-01-27T13:01:40.787Z,95112.20
2019-01-27T13:05:45.467Z,95114.66
2019-01-27T13:09:50.142Z,95110.30
2019-01-27T13:13:54.819Z,95119.05
2019-01-27T13:17:59.481Z,95108.51
2019-01-27T13:22:04.163Z,95109.81
2019-01-27T13:26:08.844Z,95105.53
2019-01-27T13:30:18.605Z,95106.50
2019-01-27T13:34:23.291Z,95094.89
2019-01-27T13:38:27.958Z,95088.05
2019-01-27T13:42:32.636Z,95079.61
2019-01-27T13:46:37.316Z,95081.03
2019-01-27T13:50:41.995Z,95080.96
2019-01-27T13:54:46.671Z,95086.50
2019-01-27T13:58:51.340Z,95082.11
2019-01-27T14:02:56.016Z,95084.94
2019-01-27T14:07:00.696Z,95087.42
2019-01-27T14:11:05.375Z,95083.73
2019-01-27T14:15:13.388Z,95086.48
2019-01-27T14:19:18.050Z,95088.72
2019-01-27T14:23:22.732Z,95090.16
2019-01-27T14:27:27.411Z,95083.73
2019-01-27T14:31:32.089Z,95091.77
2019-01-27T14:35:36.770Z,95094.02
2019-01-27T14:39:41.440Z,95090.00
2019-01-27T14:43:46.125Z,95092.72
2019-01-27T14:47:50.799Z,95092.70
2019-01-27T14:51:55.474Z,95089.14
2019-01-27T14:56:00.154Z,95080.50
2019-01-27T15:00:08.083Z,95087.23
2019-01-27T15:04:12.768Z,95081.70
2019-01-27T15:08:17.448Z,95085.72
2019-01-27T15:12:22.123Z,95084.66
2019-01-27T15:16:26.804Z,95079.08
2019-01-27T15:20:40.564Z,95073.17
2019-01-27T15:24:45.234Z,95073.86
2019-01-27T15:28:49.924Z,95073.61
2019-01-27T15:32:55.426Z,95074.19
2019-01-27T15:37:00.118Z,95073.95
2019-01-27T15:41:04.789Z,95070.63
2019-01-27T15:45:13.008Z,95061.74
2019-01-27T15:49:17.685Z,95063.30
2019-01-27T15:53:22.367Z,95064.23
2019-01-27T15:57:27.041Z,95048.39
2019-01-27T16:01:31.710Z,95053.70
2019-01-27T16:05:36.390Z,95057.97
2019-01-27T16:09:41.071Z,95052.97
2019-01-27T16:13:45.759Z,95054.98
2019-01-27T16:17:51.403Z,95056.18
2019-01-27T16:21:56.079Z,95054.52
2019-01-27T16:26:01.929Z,95052.36
2019-01-27T16:30:22.482Z,95053.66
2019-01-27T16:34:28.802Z,95060.77
2019-01-27T16:38:33.477Z,95053.20
2019-01-27T16:42:38.146Z,95048.80
2019-01-27T16:46:42.825Z,95053.09
2019-01-27T16:50:48.473Z,95053.09
2019-01-27T16:54:53.239Z,95055.92
2019-01-27T16:58:59.505Z,95059.47
2019-01-27T17:03:04.231Z,95065.27
2019-01-27T17:07:08.910Z,95060.53
2019-01-27T17:11:14.569Z,95058.39
2019-01-27T17:15:19.344Z,95062.92
2019-01-27T17:19:24.026Z,95067.87
2019-01-27T17:23:28.809Z,95072.97
2019-01-27T17:27:33.540Z,95078.17
2019-01-27T17:31:44.752Z,95075.11
2019-01-27T17:35:44.689Z,95073.78
2019-01-27T17:39:49.442Z,95077.66
2019-01-27T17:43:54.109Z,95083.22
2019-01-27T17:47:58.794Z,95085.33
2019-01-27T17:52:03.467Z,95081.30
2019-01-27T17:56:08.143Z,95090.00
2019-01-27T18:00:14.966Z,95094.70
2019-01-27T18:04:33.568Z,95095.30
2019-01-27T18:08:42.871Z,95102.27
2019-01-27T18:12:54.883Z,95107.30
2019-01-27T18:16:59.553Z,95123.00
2019-01-27T18:21:04.234Z,95142.17
2019-01-27T18:25:10.942Z,95159.89
2019-01-27T18:29:15.625Z,95168.77
2019-01-27T18:33:20.356Z,95170.30
2019-01-27T18:37:24.988Z,95189.19
2019-01-27T18:41:29.658Z,95192.83
2019-01-27T18:45:34.334Z,95204.88
2019-01-27T18:49:39.010Z,95211.48
2019-01-27T18:53:51.131Z,95221.16
2019-01-27T18:58:09.442Z,95237.70
2019-01-27T19:02:21.756Z,95240.88
2019-01-27T19:06:30.747Z,95246.64
2019-01-27T19:10:42.558Z,95254.63
2019-01-27T19:15:05.319Z,95252.52
2019-01-27T19:19:11.638Z,95260.20
2019-01-27T19:23:20.662Z,95260.97
2019-01-27T19:27:29.729Z,95279.02
2019-01-27T19:31:36.039Z,95280.03
2019-01-27T19:35:45.074Z,95283.19
2019-01-27T19:39:57.503Z,95289.75
2019-01-27T19:44:09.788Z,95295.85
2019-01-27T19:48:16.113Z,95306.87
2019-01-27T19:52:38.539Z,95305.02
2019-01-27T19:56:44.855Z,95313.70
2019-01-27T20:00:57.121Z,95321.64
2019-01-27T20:05:06.361Z,95342.70
2019-01-27T20:09:28.778Z,95350.09
2019-01-27T20:13:51.269Z,95368.86
2019-01-27T20:18:15.713Z,95368.86
2019-01-27T20:22:28.132Z,95377.62
2019-01-27T20:26:50.601Z,95386.28
2019-01-27T20:31:05.879Z,95392.61
2019-01-27T20:35:17.920Z,95396.11
2019-01-27T20:39:40.770Z,95408.78
2019-01-27T20:43:53.042Z,95402.82
2019-01-27T20:48:14.563Z,95415.91
2019-01-27T20:52:23.646Z,95426.02
2019-01-27T20:56:33.006Z,95426.55
2019-01-27T21:00:39.324Z,95446.76
2019-01-27T21:09:01.773Z,95446.86
2019-01-27T21:13:15.184Z,95455.38
2019-01-27T21:17:24.439Z,95464.95
2019-01-27T21:21:29.127Z,95472.59
2019-01-27T21:25:33.805Z,95477.48
2019-01-27T21:29:38.476Z,95482.00
2019-01-27T21:33:43.161Z,95488.54
2019-01-27T21:37:47.838Z,95488.92
2019-01-27T21:41:52.521Z,95488.08
2019-01-27T21:45:57.197Z,95492.03
2019-01-27T21:50:01.867Z,95494.34
2019-01-27T21:54:06.542Z,95494.41
2019-01-27T21:58:11.227Z,95507.80
2019-01-27T22:02:15.899Z,95509.34
2019-01-27T22:06:20.596Z,95518.71
2019-01-27T22:10:25.253Z,95523.22
2019-01-27T22:14:29.934Z,95524.12
2019-01-27T22:18:34.618Z,95533.66
2019-01-27T22:22:39.296Z,95526.98
2019-01-27T22:26:43.967Z,95542.64
2019-01-27T22:30:48.671Z,95542.80
2019-01-27T22:34:53.359Z,95544.62
2019-01-27T22:38:58.035Z,95548.05
2019-01-27T22:43:02.712Z,95560.45
2019-01-27T22:47:07.379Z,95564.09
2019-01-27T22:51:12.060Z,95570.78
2019-01-27T22:55:16.743Z,95573.59
2019-01-27T22:59:21.423Z,95575.64
2019-01-27T23:03:26.097Z,95580.58
2019-01-27T23:07:30.768Z,95585.81
2019-01-27T23:11:35.449Z,95586.94
2019-01-27T23:15:40.132Z,95595.77
2019-01-27T23:19:44.806Z,95597.44
2019-01-27T23:23:49.478Z,95604.82
2019-01-27T23:27:54.146Z,95600.20
2019-01-27T23:31:58.830Z,95611.00
2019-01-27T23:36:03.508Z,95617.02
2019-01-27T23:40:08.560Z,95613.64
2019-01-27T23:44:13.257Z,95625.05
2019-01-27T23:48:17.939Z,95627.52
2019-01-27T23:52:22.618Z,95638.01
2019-01-27T23:56:27.302Z,95633.40
